Delta Junction, AK (99737)

6:41 AM AKDT on August 31, 2015 (GMT -0800)
Tanana Loop Area | | Change Station
CLOSE
Current Station
Personal Weather Station
Location: Delta Junction, AK
Elevation: 1025 ft
Nearby Weather Stations

Elev 1025 ft 64.14 °N, 145.77 °W | Updated 7 seconds ago

Overcast
Overcast
34.0 °F
Feels Like 29 °F
N
6.0
Wind Variable Wind from NW
Gusts 6.0 mph

Today
High -- | Low -- °F
--% Chance of Precip.
Yesterday
High -- | Low -- °F
Precip. -- in
6:21 AM 9:00 PM
Waning Gibbous, 95% visible
Pressure 29.65 in
Visibility 10.0 miles
Clouds Overcast 700 ft
Windchill 29 °F
Dew Point 34 °F
Humidity 100%
Rainfall 0.01 in
Snow Depth Not available.
UV 0 out of 12
Pollen Not available.
Air Quality Not available.
Flu Activity Not available.
METAR PABI 311353Z 29010KT 10SM OVC007 02/01 A2960 RMK AO2 SLP040 T00170006
Pressure 29.65 in
Visibility 10.0 miles
Clouds Overcast 700 ft
Windchill 29 °F
Dew Point 34 °F
Humidity 100%
Rainfall 0.01 in
Snow Depth Not available.
UV 0 out of 12
Pollen Not available.
Air Quality Not available.
Flu Activity Not available.
METAR PABI 311353Z 29010KT 10SM OVC007 02/01 A2960 RMK AO2 SLP040 T00170006

10-Day Weather Forecast

×

Almanac

Astronomy

Aug. 31, 2015 Rise Set
Actual Time
Civil Twilight
Nautical Twilight
Astronomical Twilight
Moon
Length of Visible Light
Length of Day
Tomorrow will be .
, % of the Moon is Illuminated

Today's Extremes

State Highs State Lows

Community

WunderPhotos

Upload Photos

1,851,254 photos uploaded!

WunderBlogs® & News

Nearby

Air Quality

  Air Quality AQ Index Pollutant
Not available.

Snow Depth

Station Depth Elevation

Earthquake Activity

City Distance Mag. Time & Date
Minimum magnitude displayed is 2.5.

Coastal Water Temperatures

Place Temperature

Stations

Nearby Weather Stations

Station Location Temp. Windchill Dew Point Humidity Wind Precip. Elev Updated Type